sensor_id;sensor_type;location;lat;lon;timestamp;temperature;humidity
8736;DHT22;4404;49.308;12.178;2023-05-10T05:51:22;12.00;99.90
8736;DHT22;4404;49.308;12.178;2023-05-10T05:53:25;12.70;99.90
8736;DHT22;4404;49.308;12.178;2023-05-10T05:55:27;12.80;99.90
8736;DHT22;4404;49.308;12.178;2023-05-10T05:57:30;12.90;99.90
8736;DHT22;4404;49.308;12.178;2023-05-10T05:59:32;12.80;99.90
8736;DHT22;4404;49.308;12.178;2023-05-10T06:01:34;12.70;99.90
8736;DHT22;4404;49.308;12.178;2023-05-10T06:03:36;12.70;99.90
8736;DHT22;4404;49.308;12.178;2023-05-10T06:05:38;12.80;99.90
8736;DHT22;4404;49.308;12.178;2023-05-10T06:07:41;12.90;99.90
8736;DHT22;4404;49.308;12.178;2023-05-10T06:09:43;12.90;99.90
8736;DHT22;4404;49.308;12.178;2023-05-10T06:11:45;12.90;99.90
8736;DHT22;4404;49.308;12.178;2023-05-10T06:13:47;12.90;99.90
8736;DHT22;4404;49.308;12.178;2023-05-10T06:15:49;12.90;99.90
8736;DHT22;4404;49.308;12.178;2023-05-10T06:17:51;12.80;99.90
8736;DHT22;4404;49.308;12.178;2023-05-10T06:19:53;12.70;99.90
8736;DHT22;4404;49.308;12.178;2023-05-10T06:21:55;12.80;99.90
8736;DHT22;4404;49.308;12.178;2023-05-10T06:23:59;12.80;99.90
8736;DHT22;4404;49.308;12.178;2023-05-10T06:26:01;13.00;99.90
8736;DHT22;4404;49.308;12.178;2023-05-10T06:28:03;13.20;99.90
8736;DHT22;4404;49.308;12.178;2023-05-10T06:30:06;13.10;99.90
8736;DHT22;4404;49.308;12.178;2023-05-10T06:32:09;13.20;99.90
8736;DHT22;4404;49.308;12.178;2023-05-10T06:34:11;13.40;99.90
8736;DHT22;4404;49.308;12.178;2023-05-10T06:36:14;13.40;99.90
8736;DHT22;4404;49.308;12.178;2023-05-10T06:38:16;13.50;99.90
8736;DHT22;4404;49.308;12.178;2023-05-10T06:40:19;13.60;99.90
8736;DHT22;4404;49.308;12.178;2023-05-10T06:42:22;13.70;99.90
8736;DHT22;4404;49.308;12.178;2023-05-10T06:44:25;13.70;99.90
8736;DHT22;4404;49.308;12.178;2023-05-10T06:46:27;13.70;99.90
8736;DHT22;4404;49.308;12.178;2023-05-10T06:48:29;13.70;99.90
8736;DHT22;4404;49.308;12.178;2023-05-10T06:50:31;13.70;99.90
8736;DHT22;4404;49.308;12.178;2023-05-10T06:52:33;13.70;99.90
8736;DHT22;4404;49.308;12.178;2023-05-10T06:54:36;13.70;99.90
8736;DHT22;4404;49.308;12.178;2023-05-10T06:56:39;13.60;99.90
8736;DHT22;4404;49.308;12.178;2023-05-10T06:58:41;13.70;99.90
8736;DHT22;4404;49.308;12.178;2023-05-10T07:00:43;13.70;99.90
8736;DHT22;4404;49.308;12.178;2023-05-10T07:02:45;13.70;99.90
8736;DHT22;4404;49.308;12.178;2023-05-10T07:04:48;13.70;99.90
8736;DHT22;4404;49.308;12.178;2023-05-10T07:06:54;13.70;99.90
8736;DHT22;4404;49.308;12.178;2023-05-10T07:09:00;13.70;99.90
8736;DHT22;4404;49.308;12.178;2023-05-10T07:11:04;13.70;99.90
8736;DHT22;4404;49.308;12.178;2023-05-10T07:13:09;13.80;99.90
8736;DHT22;4404;49.308;12.178;2023-05-10T07:15:12;13.70;99.90
8736;DHT22;4404;49.308;12.178;2023-05-10T07:17:14;13.70;99.90
8736;DHT22;4404;49.308;12.178;2023-05-10T07:19:16;13.80;99.90
8736;DHT22;4404;49.308;12.178;2023-05-10T07:21:18;13.80;99.90
8736;DHT22;4404;49.308;12.178;2023-05-10T07:23:20;13.80;99.90
8736;DHT22;4404;49.308;12.178;2023-05-10T07:25:22;13.80;99.90
8736;DHT22;4404;49.308;12.178;2023-05-10T07:27:24;13.70;99.90
8736;DHT22;4404;49.308;12.178;2023-05-10T07:29:28;13.70;99.90
8736;DHT22;4404;49.308;12.178;2023-05-10T07:31:30;13.70;99.90
8736;DHT22;4404;49.308;12.178;2023-05-10T07:33:32;13.60;99.90
8736;DHT22;4404;49.308;12.178;2023-05-10T07:35:34;13.70;99.90
8736;DHT22;4404;49.308;12.178;2023-05-10T07:37:36;13.80;99.90
8736;DHT22;4404;49.308;12.178;2023-05-10T07:39:38;13.80;99.90
8736;DHT22;4404;49.308;12.178;2023-05-10T07:41:40;13.80;99.90
8736;DHT22;4404;49.308;12.178;2023-05-10T07:43:42;13.90;99.90
8736;DHT22;4404;49.308;12.178;2023-05-10T07:45:46;14.00;99.90
8736;DHT22;4404;49.308;12.178;2023-05-10T07:47:48;14.10;99.90
8736;DHT22;4404;49.308;12.178;2023-05-10T07:49:50;14.10;99.90
8736;DHT22;4404;49.308;12.178;2023-05-10T07:51:52;14.10;99.90
8736;DHT22;4404;49.308;12.178;2023-05-10T07:53:54;14.00;99.90
8736;DHT22;4404;49.308;12.178;2023-05-10T07:55:58;14.10;99.90
8736;DHT22;4404;49.308;12.178;2023-05-10T07:58:00;14.10;99.90
8736;DHT22;4404;49.308;12.178;2023-05-10T08:00:03;14.30;99.90
8736;DHT22;4404;49.308;12.178;2023-05-10T08:02:08;14.40;99.90
8736;DHT22;4404;49.308;12.178;2023-05-10T08:04:10;14.50;99.90
8736;DHT22;4404;49.308;12.178;2023-05-10T08:06:13;14.70;99.90
8736;DHT22;4404;49.308;12.178;2023-05-10T08:08:17;14.60;99.90
8736;DHT22;4404;49.308;12.178;2023-05-10T08:10:22;14.70;99.90
8736;DHT22;4404;49.308;12.178;2023-05-10T08:12:24;14.70;99.90
8736;DHT22;4404;49.308;12.178;2023-05-10T08:14:29;14.80;99.90
8736;DHT22;4404;49.308;12.178;2023-05-10T08:16:33;14.90;99.90
8736;DHT22;4404;49.308;12.178;2023-05-10T08:18:37;15.10;99.90
8736;DHT22;4404;49.308;12.178;2023-05-10T08:20:39;15.10;99.90
8736;DHT22;4404;49.308;12.178;2023-05-10T08:22:42;15.20;99.90
8736;DHT22;4404;49.308;12.178;2023-05-10T08:24:44;15.30;99.90
8736;DHT22;4404;49.308;12.178;2023-05-10T08:26:46;15.40;99.90
8736;DHT22;4404;49.308;12.178;2023-05-10T08:28:49;15.40;99.90
8736;DHT22;4404;49.308;12.178;2023-05-10T08:30:51;15.40;99.90
8736;DHT22;4404;49.308;12.178;2023-05-10T08:32:53;15.50;99.90
8736;DHT22;4404;49.308;12.178;2023-05-10T08:34:57;15.50;99.90
8736;DHT22;4404;49.308;12.178;2023-05-10T08:36:59;15.50;99.90
8736;DHT22;4404;49.308;12.178;2023-05-10T08:39:01;15.60;99.90
8736;DHT22;4404;49.308;12.178;2023-05-10T08:41:05;15.60;99.90
8736;DHT22;4404;49.308;12.178;2023-05-10T08:43:09;15.60;99.90
8736;DHT22;4404;49.308;12.178;2023-05-10T08:45:13;15.70;99.90
8736;DHT22;4404;49.308;12.178;2023-05-10T08:47:18;15.70;99.90
8736;DHT22;4404;49.308;12.178;2023-05-10T08:49:20;15.70;99.90
8736;DHT22;4404;49.308;12.178;2023-05-10T08:51:25;15.70;99.90
8736;DHT22;4404;49.308;12.178;2023-05-10T08:53:29;15.60;99.90
8736;DHT22;4404;49.308;12.178;2023-05-10T08:55:33;15.60;99.90
8736;DHT22;4404;49.308;12.178;2023-05-10T08:57:37;15.70;99.90
8736;DHT22;4404;49.308;12.178;2023-05-10T08:59:39;15.70;99.90
8736;DHT22;4404;49.308;12.178;2023-05-10T09:01:43;15.70;99.90
8736;DHT22;4404;49.308;12.178;2023-05-10T09:03:47;15.70;99.90
8736;DHT22;4404;49.308;12.178;2023-05-10T09:05:50;15.80;99.90
8736;DHT22;4404;49.308;12.178;2023-05-10T09:07:54;15.70;99.90
8736;DHT22;4404;49.308;12.178;2023-05-10T09:09:56;15.70;99.90
8736;DHT22;4404;49.308;12.178;2023-05-10T09:11:59;15.70;99.90
8736;DHT22;4404;49.308;12.178;2023-05-10T09:14:01;15.50;99.90
8736;DHT22;4404;49.308;12.178;2023-05-10T09:16:04;15.50;99.90
8736;DHT22;4404;49.308;12.178;2023-05-10T09:18:07;15.40;99.90
8736;DHT22;4404;49.308;12.178;2023-05-10T09:20:09;15.40;99.90
8736;DHT22;4404;49.308;12.178;2023-05-10T09:22:12;15.40;99.90
8736;DHT22;4404;49.308;12.178;2023-05-10T09:24:15;15.50;99.90
8736;DHT22;4404;49.308;12.178;2023-05-10T09:26:22;15.60;99.90
8736;DHT22;4404;49.308;12.178;2023-05-10T09:28:24;15.60;99.90
8736;DHT22;4404;49.308;12.178;2023-05-10T09:30:28;15.60;99.90
8736;DHT22;4404;49.308;12.178;2023-05-10T09:32:38;15.70;99.90
8736;DHT22;4404;49.308;12.178;2023-05-10T09:34:41;15.70;99.90
8736;DHT22;4404;49.308;12.178;2023-05-10T09:36:53;15.80;99.90
8736;DHT22;4404;49.308;12.178;2023-05-10T09:38:57;15.90;99.90
8736;DHT22;4404;49.308;12.178;2023-05-10T09:41:01;16.00;99.90
8736;DHT22;4404;49.308;12.178;2023-05-10T09:43:06;16.00;99.90
8736;DHT22;4404;49.308;12.178;2023-05-10T09:45:09;15.90;99.90
8736;DHT22;4404;49.308;12.178;2023-05-10T09:47:17;15.90;99.90
8736;DHT22;4404;49.308;12.178;2023-05-10T09:49:20;16.10;99.90
8736;DHT22;4404;49.308;12.178;2023-05-10T09:51:23;16.20;99.90
8736;DHT22;4404;49.308;12.178;2023-05-10T09:53:27;16.20;99.90
8736;DHT22;4404;49.308;12.178;2023-05-10T09:55:39;16.20;99.90
8736;DHT22;4404;49.308;12.178;2023-05-10T09:57:43;16.30;99.90
8736;DHT22;4404;49.308;12.178;2023-05-10T09:59:45;16.30;99.90
8736;DHT22;4404;49.308;12.178;2023-05-10T10:01:51;16.30;99.90
8736;DHT22;4404;49.308;12.178;2023-05-10T10:03:54;16.20;99.90
8736;DHT22;4404;49.308;12.178;2023-05-10T10:05:58;16.20;99.90
8736;DHT22;4404;49.308;12.178;2023-05-10T10:08:01;16.10;99.90
8736;DHT22;4404;49.308;12.178;2023-05-10T10:10:06;16.00;99.90
8736;DHT22;4404;49.308;12.178;2023-05-10T10:12:12;15.90;99.90
8736;DHT22;4404;49.308;12.178;2023-05-10T10:14:16;15.80;99.90
8736;DHT22;4404;49.308;12.178;2023-05-10T10:16:20;16.00;99.90
8736;DHT22;4404;49.308;12.178;2023-05-10T10:18:23;15.90;99.90
8736;DHT22;4404;49.308;12.178;2023-05-10T10:20:28;15.90;99.90
8736;DHT22;4404;49.308;12.178;2023-05-10T10:22:30;15.90;99.90
8736;DHT22;4404;49.308;12.178;2023-05-10T10:24:32;15.90;99.90
8736;DHT22;4404;49.308;12.178;2023-05-10T10:26:37;15.70;99.90
8736;DHT22;4404;49.308;12.178;2023-05-10T10:28:44;15.70;99.90
8736;DHT22;4404;49.308;12.178;2023-05-10T10:30:55;15.70;99.90
8736;DHT22;4404;49.308;12.178;2023-05-10T10:33:18;15.70;99.90
8736;DHT22;4404;49.308;12.178;2023-05-10T10:35:31;15.80;99.90
8736;DHT22;4404;49.308;12.178;2023-05-10T10:37:44;15.80;99.90
8736;DHT22;4404;49.308;12.178;2023-05-10T10:39:48;15.60;99.90
8736;DHT22;4404;49.308;12.178;2023-05-10T10:41:52;15.30;99.90
8736;DHT22;4404;49.308;12.178;2023-05-10T10:44:25;15.20;99.90
8736;DHT22;4404;49.308;12.178;2023-05-10T10:46:59;15.20;99.90
8736;DHT22;4404;49.308;12.178;2023-05-10T10:49:09;15.40;99.90
8736;DHT22;4404;49.308;12.178;2023-05-10T10:51:13;15.60;99.90
8736;DHT22;4404;49.308;12.178;2023-05-10T10:53:15;15.80;99.90
8736;DHT22;4404;49.308;12.178;2023-05-10T10:55:18;16.00;99.90
8736;DHT22;4404;49.308;12.178;2023-05-10T10:57:22;16.10;99.90
8736;DHT22;4404;49.308;12.178;2023-05-10T10:59:27;16.10;99.90
8736;DHT22;4404;49.308;12.178;2023-05-10T11:01:33;16.10;99.90
8736;DHT22;4404;49.308;12.178;2023-05-10T11:03:37;16.20;99.90
8736;DHT22;4404;49.308;12.178;2023-05-10T11:05:42;16.20;99.90
8736;DHT22;4404;49.308;12.178;2023-05-10T11:07:52;16.40;99.90
8736;DHT22;4404;49.308;12.178;2023-05-10T11:09:55;16.50;99.90
8736;DHT22;4404;49.308;12.178;2023-05-10T11:11:57;16.70;99.90
8736;DHT22;4404;49.308;12.178;2023-05-10T11:14:03;16.80;99.90
8736;DHT22;4404;49.308;12.178;2023-05-10T11:16:11;16.90;99.90
8736;DHT22;4404;49.308;12.178;2023-05-10T11:18:25;16.90;99.90
8736;DHT22;4404;49.308;12.178;2023-05-10T11:20:38;16.90;99.90
8736;DHT22;4404;49.308;12.178;2023-05-10T11:22:50;16.80;99.90
8736;DHT22;4404;49.308;12.178;2023-05-10T11:24:58;16.80;99.90
8736;DHT22;4404;49.308;12.178;2023-05-10T11:27:00;16.70;99.90
8736;DHT22;4404;49.308;12.178;2023-05-10T11:29:02;16.70;99.90
8736;DHT22;4404;49.308;12.178;2023-05-10T11:31:05;16.70;99.90
8736;DHT22;4404;49.308;12.178;2023-05-10T11:33:07;16.80;99.90
8736;DHT22;4404;49.308;12.178;2023-05-10T11:35:11;16.90;99.90
8736;DHT22;4404;49.308;12.178;2023-05-10T11:37:15;16.90;99.90
8736;DHT22;4404;49.308;12.178;2023-05-10T11:39:17;17.10;99.90
8736;DHT22;4404;49.308;12.178;2023-05-10T11:41:19;17.20;99.90
8736;DHT22;4404;49.308;12.178;2023-05-10T11:43:24;17.30;99.90
8736;DHT22;4404;49.308;12.178;2023-05-10T11:45:28;17.30;99.90
8736;DHT22;4404;49.308;12.178;2023-05-10T11:47:32;17.50;99.90
8736;DHT22;4404;49.308;12.178;2023-05-10T11:49:36;17.60;99.90
8736;DHT22;4404;49.308;12.178;2023-05-10T11:51:38;17.70;99.90
8736;DHT22;4404;49.308;12.178;2023-05-10T11:53:44;17.70;99.90
8736;DHT22;4404;49.308;12.178;2023-05-10T11:55:46;17.80;99.90
8736;DHT22;4404;49.308;12.178;2023-05-10T11:57:52;17.80;99.90
8736;DHT22;4404;49.308;12.178;2023-05-10T11:59:55;17.80;99.90
8736;DHT22;4404;49.308;12.178;2023-05-10T12:01:58;17.80;99.90
8736;DHT22;4404;49.308;12.178;2023-05-10T12:04:00;17.70;99.90
8736;DHT22;4404;49.308;12.178;2023-05-10T12:06:03;17.60;99.90
8736;DHT22;4404;49.308;12.178;2023-05-10T12:08:12;17.60;99.90
8736;DHT22;4404;49.308;12.178;2023-05-10T12:10:25;17.60;99.90
8736;DHT22;4404;49.308;12.178;2023-05-10T12:12:35;17.50;99.90
8736;DHT22;4404;49.308;12.178;2023-05-10T12:14:39;17.50;99.90
8736;DHT22;4404;49.308;12.178;2023-05-10T12:16:43;17.40;99.90
8736;DHT22;4404;49.308;12.178;2023-05-10T12:18:45;17.40;99.90
8736;DHT22;4404;49.308;12.178;2023-05-10T12:20:52;17.30;99.90
8736;DHT22;4404;49.308;12.178;2023-05-10T12:22:56;17.30;99.90
8736;DHT22;4404;49.308;12.178;2023-05-10T12:24:59;17.20;99.90
8736;DHT22;4404;49.308;12.178;2023-05-10T12:27:07;17.20;99.90
8736;DHT22;4404;49.308;12.178;2023-05-10T12:29:13;17.10;99.90
8736;DHT22;4404;49.308;12.178;2023-05-10T12:31:16;17.10;99.90
8736;DHT22;4404;49.308;12.178;2023-05-10T12:33:19;17.10;99.90
8736;DHT22;4404;49.308;12.178;2023-05-10T12:35:21;17.00;99.90
8736;DHT22;4404;49.308;12.178;2023-05-10T12:37:27;16.80;99.90
8736;DHT22;4404;49.308;12.178;2023-05-10T12:39:39;16.80;99.90
8736;DHT22;4404;49.308;12.178;2023-05-10T12:41:42;16.70;99.90
8736;DHT22;4404;49.308;12.178;2023-05-10T12:43:46;16.70;99.90
8736;DHT22;4404;49.308;12.178;2023-05-10T12:45:48;16.60;99.90
8736;DHT22;4404;49.308;12.178;2023-05-10T12:47:50;16.50;99.90
8736;DHT22;4404;49.308;12.178;2023-05-10T12:49:53;16.40;99.90
8736;DHT22;4404;49.308;12.178;2023-05-10T12:51:55;16.40;99.90
8736;DHT22;4404;49.308;12.178;2023-05-10T12:53:57;16.40;99.90
8736;DHT22;4404;49.308;12.178;2023-05-10T12:55:59;16.40;99.90
8736;DHT22;4404;49.308;12.178;2023-05-10T12:58:01;15.70;99.90
8736;DHT22;4404;49.308;12.178;2023-05-10T13:00:08;16.40;99.90
8736;DHT22;4404;49.308;12.178;2023-05-10T13:02:11;16.30;99.90
8736;DHT22;4404;49.308;12.178;2023-05-10T13:04:13;16.30;99.90
8736;DHT22;4404;49.308;12.178;2023-05-10T13:06:15;16.30;99.90
8736;DHT22;4404;49.308;12.178;2023-05-10T13:08:17;16.20;99.90
8736;DHT22;4404;49.308;12.178;2023-05-10T13:10:20;16.10;99.90
8736;DHT22;4404;49.308;12.178;2023-05-10T13:12:24;16.10;99.90
8736;DHT22;4404;49.308;12.178;2023-05-10T13:14:26;16.10;99.90
8736;DHT22;4404;49.308;12.178;2023-05-10T13:16:31;16.00;99.90
8736;DHT22;4404;49.308;12.178;2023-05-10T13:18:33;15.80;99.90
8736;DHT22;4404;49.308;12.178;2023-05-10T13:20:35;15.70;99.90
8736;DHT22;4404;49.308;12.178;2023-05-10T13:22:41;15.70;99.90
8736;DHT22;4404;49.308;12.178;2023-05-10T13:24:43;15.70;99.90
8736;DHT22;4404;49.308;12.178;2023-05-10T13:26:45;15.70;99.90
8736;DHT22;4404;49.308;12.178;2023-05-10T13:28:50;15.70;99.90
8736;DHT22;4404;49.308;12.178;2023-05-10T13:30:52;15.60;99.90
8736;DHT22;4404;49.308;12.178;2023-05-10T13:32:56;15.90;99.90
8736;DHT22;4404;49.308;12.178;2023-05-10T13:35:01;16.00;99.90
8736;DHT22;4404;49.308;12.178;2023-05-10T13:37:04;16.10;99.90
8736;DHT22;4404;49.308;12.178;2023-05-10T13:39:06;16.10;99.90
8736;DHT22;4404;49.308;12.178;2023-05-10T13:41:09;16.20;99.90
8736;DHT22;4404;49.308;12.178;2023-05-10T13:43:12;16.20;99.90
8736;DHT22;4404;49.308;12.178;2023-05-10T13:45:14;16.20;99.90
8736;DHT22;4404;49.308;12.178;2023-05-10T13:47:16;16.20;99.90
8736;DHT22;4404;49.308;12.178;2023-05-10T13:49:20;16.20;99.90
8736;DHT22;4404;49.308;12.178;2023-05-10T13:51:22;16.20;99.90
8736;DHT22;4404;49.308;12.178;2023-05-10T13:53:26;16.10;99.90
8736;DHT22;4404;49.308;12.178;2023-05-10T13:55:28;16.10;99.90
8736;DHT22;4404;49.308;12.178;2023-05-10T13:57:31;16.10;99.90
8736;DHT22;4404;49.308;12.178;2023-05-10T13:59:34;16.20;99.90
8736;DHT22;4404;49.308;12.178;2023-05-10T14:01:37;16.30;99.90
8736;DHT22;4404;49.308;12.178;2023-05-10T14:03:39;16.30;99.90
8736;DHT22;4404;49.308;12.178;2023-05-10T14:05:42;16.40;99.90
8736;DHT22;4404;49.308;12.178;2023-05-10T14:07:45;16.50;99.90
8736;DHT22;4404;49.308;12.178;2023-05-10T14:09:47;16.50;99.90
8736;DHT22;4404;49.308;12.178;2023-05-10T14:11:50;16.60;99.90
8736;DHT22;4404;49.308;12.178;2023-05-10T14:13:52;16.60;99.90
8736;DHT22;4404;49.308;12.178;2023-05-10T14:15:54;16.60;99.90
8736;DHT22;4404;49.308;12.178;2023-05-10T14:17:56;16.50;99.90
8736;DHT22;4404;49.308;12.178;2023-05-10T14:19:59;16.60;99.90
8736;DHT22;4404;49.308;12.178;2023-05-10T14:22:02;16.60;99.90
8736;DHT22;4404;49.308;12.178;2023-05-10T14:24:07;16.60;99.90
8736;DHT22;4404;49.308;12.178;2023-05-10T14:26:09;16.60;99.90
8736;DHT22;4404;49.308;12.178;2023-05-10T14:28:11;16.60;99.90
8736;DHT22;4404;49.308;12.178;2023-05-10T14:30:14;16.60;99.90
8736;DHT22;4404;49.308;12.178;2023-05-10T14:32:16;16.60;99.90
8736;DHT22;4404;49.308;12.178;2023-05-10T14:34:19;16.60;99.90
8736;DHT22;4404;49.308;12.178;2023-05-10T14:36:21;16.60;99.90
8736;DHT22;4404;49.308;12.178;2023-05-10T14:38:24;16.60;99.90
8736;DHT22;4404;49.308;12.178;2023-05-10T14:40:27;16.60;99.90
8736;DHT22;4404;49.308;12.178;2023-05-10T14:42:29;16.60;99.90
8736;DHT22;4404;49.308;12.178;2023-05-10T14:44:31;16.70;99.90
8736;DHT22;4404;49.308;12.178;2023-05-10T14:46:34;16.70;99.90
8736;DHT22;4404;49.308;12.178;2023-05-10T14:48:36;16.80;99.90
8736;DHT22;4404;49.308;12.178;2023-05-10T14:50:38;16.90;99.90
8736;DHT22;4404;49.308;12.178;2023-05-10T14:52:40;16.90;99.90
8736;DHT22;4404;49.308;12.178;2023-05-10T14:54:44;16.80;99.90
8736;DHT22;4404;49.308;12.178;2023-05-10T14:56:46;16.80;99.90
8736;DHT22;4404;49.308;12.178;2023-05-10T14:58:50;16.70;99.90
8736;DHT22;4404;49.308;12.178;2023-05-10T15:00:52;16.70;99.90
8736;DHT22;4404;49.308;12.178;2023-05-10T15:02:54;16.70;99.90
8736;DHT22;4404;49.308;12.178;2023-05-10T15:04:56;16.70;99.90
8736;DHT22;4404;49.308;12.178;2023-05-10T15:06:59;16.70;99.90
8736;DHT22;4404;49.308;12.178;2023-05-10T15:09:01;16.80;99.90
8736;DHT22;4404;49.308;12.178;2023-05-10T15:11:05;16.90;99.90
8736;DHT22;4404;49.308;12.178;2023-05-10T15:13:08;16.80;99.90
8736;DHT22;4404;49.308;12.178;2023-05-10T15:15:10;16.80;99.90
8736;DHT22;4404;49.308;12.178;2023-05-10T15:17:12;16.90;99.90
8736;DHT22;4404;49.308;12.178;2023-05-10T15:19:14;16.90;99.90
8736;DHT22;4404;49.308;12.178;2023-05-10T15:21:16;16.80;99.90
8736;DHT22;4404;49.308;12.178;2023-05-10T15:23:18;16.80;99.90
8736;DHT22;4404;49.308;12.178;2023-05-10T15:25:21;16.70;99.90
8736;DHT22;4404;49.308;12.178;2023-05-10T15:27:25;16.60;99.90
8736;DHT22;4404;49.308;12.178;2023-05-10T15:29:27;16.60;99.90
8736;DHT22;4404;49.308;12.178;2023-05-10T15:31:30;16.60;99.90
8736;DHT22;4404;49.308;12.178;2023-05-10T15:33:37;16.60;99.90
8736;DHT22;4404;49.308;12.178;2023-05-10T15:35:41;16.60;99.90
8736;DHT22;4404;49.308;12.178;2023-05-10T15:37:43;16.50;99.90
8736;DHT22;4404;49.308;12.178;2023-05-10T15:39:52;16.50;99.90
8736;DHT22;4404;49.308;12.178;2023-05-10T15:42:03;16.50;99.90
8736;DHT22;4404;49.308;12.178;2023-05-10T15:44:07;16.40;99.90
8736;DHT22;4404;49.308;12.178;2023-05-10T15:46:09;16.40;99.90
8736;DHT22;4404;49.308;12.178;2023-05-10T15:48:13;16.30;99.90
8736;DHT22;4404;49.308;12.178;2023-05-10T15:50:17;16.30;99.90
8736;DHT22;4404;49.308;12.178;2023-05-10T15:52:20;16.30;99.90
8736;DHT22;4404;49.308;12.178;2023-05-10T15:54:23;16.20;99.90
8736;DHT22;4404;49.308;12.178;2023-05-10T15:56:25;16.10;99.90
8736;DHT22;4404;49.308;12.178;2023-05-10T15:58:27;16.00;99.90
8736;DHT22;4404;49.308;12.178;2023-05-10T16:00:31;15.80;99.90
8736;DHT22;4404;49.308;12.178;2023-05-10T16:02:35;15.80;99.90
8736;DHT22;4404;49.308;12.178;2023-05-10T16:04:38;15.80;99.90
8736;DHT22;4404;49.308;12.178;2023-05-10T16:06:50;15.70;99.90
8736;DHT22;4404;49.308;12.178;2023-05-10T16:08:53;15.50;99.90
8736;DHT22;4404;49.308;12.178;2023-05-10T16:10:55;15.40;99.90
8736;DHT22;4404;49.308;12.178;2023-05-10T16:12:59;15.30;99.90
8736;DHT22;4404;49.308;12.178;2023-05-10T16:15:05;15.30;99.90
8736;DHT22;4404;49.308;12.178;2023-05-10T16:17:09;15.50;99.90
8736;DHT22;4404;49.308;12.178;2023-05-10T16:19:12;15.50;99.90
8736;DHT22;4404;49.308;12.178;2023-05-10T16:21:15;15.50;99.90
8736;DHT22;4404;49.308;12.178;2023-05-10T16:23:17;15.60;99.90
8736;DHT22;4404;49.308;12.178;2023-05-10T16:25:20;15.50;99.90
8736;DHT22;4404;49.308;12.178;2023-05-10T16:27:22;15.40;99.90
8736;DHT22;4404;49.308;12.178;2023-05-10T16:29:31;15.30;99.90
8736;DHT22;4404;49.308;12.178;2023-05-10T16:31:34;15.20;99.90
8736;DHT22;4404;49.308;12.178;2023-05-10T16:33:39;15.10;99.90
8736;DHT22;4404;49.308;12.178;2023-05-10T16:35:42;15.00;99.90
8736;DHT22;4404;49.308;12.178;2023-05-10T16:37:45;14.90;99.90
8736;DHT22;4404;49.308;12.178;2023-05-10T16:39:47;14.80;99.90
8736;DHT22;4404;49.308;12.178;2023-05-10T16:41:49;14.70;99.90
8736;DHT22;4404;49.308;12.178;2023-05-10T16:43:51;14.80;99.90
8736;DHT22;4404;49.308;12.178;2023-05-10T16:45:57;14.90;99.90
8736;DHT22;4404;49.308;12.178;2023-05-10T16:47:59;15.00;99.90
8736;DHT22;4404;49.308;12.178;2023-05-10T16:50:05;15.10;99.90
8736;DHT22;4404;49.308;12.178;2023-05-10T16:52:08;14.90;99.90
8736;DHT22;4404;49.308;12.178;2023-05-10T16:54:12;14.80;99.90
8736;DHT22;4404;49.308;12.178;2023-05-10T16:56:17;15.00;99.90
8736;DHT22;4404;49.308;12.178;2023-05-10T16:58:21;15.20;99.90
8736;DHT22;4404;49.308;12.178;2023-05-10T17:00:29;15.30;99.90
8736;DHT22;4404;49.308;12.178;2023-05-10T17:02:31;15.30;99.90
8736;DHT22;4404;49.308;12.178;2023-05-10T17:04:34;15.30;99.90
8736;DHT22;4404;49.308;12.178;2023-05-10T17:06:40;15.30;99.90
8736;DHT22;4404;49.308;12.178;2023-05-10T17:08:42;15.20;99.90
8736;DHT22;4404;49.308;12.178;2023-05-10T17:10:45;15.20;99.90
8736;DHT22;4404;49.308;12.178;2023-05-10T17:12:47;15.20;99.90
8736;DHT22;4404;49.308;12.178;2023-05-10T17:14:50;15.30;99.90
8736;DHT22;4404;49.308;12.178;2023-05-10T17:17:06;15.30;99.90
8736;DHT22;4404;49.308;12.178;2023-05-10T17:19:09;15.30;99.90
8736;DHT22;4404;49.308;12.178;2023-05-10T17:21:13;15.20;99.90
8736;DHT22;4404;49.308;12.178;2023-05-10T17:23:17;15.10;99.90
8736;DHT22;4404;49.308;12.178;2023-05-10T17:25:22;15.00;99.90
8736;DHT22;4404;49.308;12.178;2023-05-10T17:27:24;15.00;99.90
8736;DHT22;4404;49.308;12.178;2023-05-10T17:29:27;14.90;99.90
8736;DHT22;4404;49.308;12.178;2023-05-10T17:31:31;14.90;99.90
8736;DHT22;4404;49.308;12.178;2023-05-10T17:33:35;14.90;99.90
8736;DHT22;4404;49.308;12.178;2023-05-10T17:35:38;15.00;99.90
8736;DHT22;4404;49.308;12.178;2023-05-10T17:37:42;15.10;99.90
8736;DHT22;4404;49.308;12.178;2023-05-10T17:39:46;15.20;99.90
8736;DHT22;4404;49.308;12.178;2023-05-10T17:41:50;15.20;99.90
8736;DHT22;4404;49.308;12.178;2023-05-10T17:43:55;15.20;99.90
8736;DHT22;4404;49.308;12.178;2023-05-10T17:45:57;15.20;99.90
8736;DHT22;4404;49.308;12.178;2023-05-10T17:47:59;15.10;99.90
8736;DHT22;4404;49.308;12.178;2023-05-10T17:50:02;15.20;99.90
8736;DHT22;4404;49.308;12.178;2023-05-10T17:52:05;15.20;99.90
8736;DHT22;4404;49.308;12.178;2023-05-10T17:54:09;15.20;99.90
8736;DHT22;4404;49.308;12.178;2023-05-10T17:56:15;15.20;99.90
8736;DHT22;4404;49.308;12.178;2023-05-10T17:58:18;15.20;99.90
8736;DHT22;4404;49.308;12.178;2023-05-10T18:00:21;15.20;99.90
8736;DHT22;4404;49.308;12.178;2023-05-10T18:02:23;15.20;99.90
8736;DHT22;4404;49.308;12.178;2023-05-10T18:04:25;15.20;99.90
8736;DHT22;4404;49.308;12.178;2023-05-10T18:06:28;15.20;99.90
8736;DHT22;4404;49.308;12.178;2023-05-10T18:08:33;15.30;99.90
8736;DHT22;4404;49.308;12.178;2023-05-10T18:10:42;15.20;99.90
